Πλησιέστερες Αναφορές METAR

 

LGTS - Thessaloniki/Makedonia-Elev 7m
Απόσταση από σταθμό: Ν 13km
Ενημερώθηκε: 10/07/2020 17:20
Διάσπαρτα Νέφη
Διάσπαρτα Νέφη
 Ανεμοι από Δ
Ανεμος: Δ 15 km/h
Θερμοκρασία: 30°C
Δείκτης Δυσφορίας: 30°C
Σημείο Δρόσου: 16°C
Υγρασία: 43%
Βαρόμετρο: 1014 hPa
Νέφωση: Διάσπαρτα Νέφη
Ορατότητα: 10 km
Λεπτομέρειες Νεφών: Διάσπαρτα Νέφη 914 m
2020/07/10 14:20 LGTS 101420Z 27008KT 9999 FEW030 30/16 Q1014 NOSIG
LGAV - Athens/Elef. Venizelos-Elev 94m
Απόσταση από σταθμό: ΝΝΑ 312km
Ενημερώθηκε: 10/07/2020 17:50
Αίθριος
Αίθριος
 Ανεμοι από ΒΒΑ
Ανεμος: ΒΒΑ 39 km/h
Θερμοκρασία: 28°C
Δείκτης Δυσφορίας: 28°C
Σημείο Δρόσου: 14°C
Υγρασία: 42%
Βαρόμετρο: 1013 hPa
Περίληψη: Αίθριος
Ορατότητα: πάνω από 10 km
2020/07/10 14:50 LGAV 101450Z 02021KT CAVOK 28/14 Q1013 NOSIG
 
LGAL - Alexandroupolis-Elev 3m
Απόσταση από σταθμό: Α 251km
Ενημερώθηκε: 10/07/2020 17:20
Διάσπαρτα Νέφη
Διάσπαρτα Νέφη
 Ανεμοι από ΒΑ
Ανεμος: ΒΑ 35 km/h
Θερμοκρασία: 31°C
Σημείο Δρόσου: 14°C
Υγρασία: 35%
Βαρόμετρο: 1014 hPa
Νέφωση: Διάσπαρτα Νέφη
Ορατότητα: 10 km
Λεπτομέρειες Νεφών: Διάσπαρτα Νέφη 914 m
2020/07/10 14:20 LGAL 101420Z 05019KT 9999 FEW030 31/14 Q1014
LGKV - Kavala/Crysoupolis-Elev 5m
Απόσταση από σταθμό: ΑΒΑ 144km
Ενημερώθηκε: 10/07/2020 17:20
Διάσπαρτα Νέφη
Διάσπαρτα Νέφη
 Ανεμοι από ΝΑ
Ανεμος: ΝΑ 13 km/h
Θερμοκρασία: 30°C
Δείκτης Δυσφορίας: 30°C
Σημείο Δρόσου: 16°C
Υγρασία: 43%
Βαρόμετρο: 1014 hPa
Νέφωση: Διάσπαρτα Νέφη
Ορατότητα: 10 km
Λεπτομέρειες Νεφών: Διάσπαρτα Νέφη 914 m
2020/07/10 14:20 LGKV 101420Z 13007KT 9999 FEW030 30/16 Q1014
 
LGSK - Skiathos Island-Elev 15m
Απόσταση από σταθμό: ΝΝΑ 168km
Ενημερώθηκε: 10/07/2020 16:50
Διάσπαρτα Νέφη
Διάσπαρτα Νέφη
 Ανεμοι από ΒΑ
Ανεμος: ΒΑ 9 km/h
Θερμοκρασία: 26°C
Σημείο Δρόσου: 18°C
Υγρασία: 61%
Βαρόμετρο: 1015 hPa
Νέφωση: Διάσπαρτα Νέφη
Ορατότητα: 10 km
Λεπτομέρειες Νεφών: Διάσπαρτα Νέφη 762 m
2020/07/10 13:50 LGSK 101350Z 04005KT 9999 FEW025 26/18 Q1015
LGLM - Limnos Island-Elev 5m
Απόσταση από σταθμό: ΑΝΑ 210km
Ενημερώθηκε: 10/07/2020 17:20
Αίθριος
Αίθριος
 Ανεμοι από ΒΑ
Ανεμος: ΒΑ 26 km/h
Θερμοκρασία: 27°C
Δείκτης Δυσφορίας: 28°C
Σημείο Δρόσου: 17°C
Υγρασία: 54%
Βαρόμετρο: 1013 hPa
Περίληψη: Αίθριος
Ορατότητα: πάνω από 10 km
2020/07/10 14:20 LGLM 101420Z 04014KT CAVOK 27/17 Q1013
 
LGMT - Mitilini Island-Elev 17m
Απόσταση από σταθμό: ΑΝΑ 358km
Ενημερώθηκε: 10/07/2020 17:20
Αίθριος
Αίθριος
 Ανεμοι από ΒΒΔ
Ανεμος: ΒΒΔ 17 km/h
Θερμοκρασία: 28°C
Δείκτης Δυσφορίας: 29°C
Σημείο Δρόσου: 18°C
Υγρασία: 55%
Βαρόμετρο: 1010 hPa
Περίληψη: Αίθριος
Ορατότητα: πάνω από 10 km
2020/07/10 14:20 LGMT 101420Z 33009KT CAVOK 28/18 Q1010
LGSY - Skiros Island-Elev 15m
Απόσταση από σταθμό: ΝΑ 227km
Ενημερώθηκε: 10/07/2020 16:50
Αίθριος
Αίθριος
 Ανεμοι από ΒΔ
Ανεμος: ΒΔ 30 km/h
Θερμοκρασία: 26°C
Σημείο Δρόσου: 16°C
Υγρασία: 54%
Βαρόμετρο: 1014 hPa
Περίληψη: Αίθριος
Ορατότητα: πάνω από 10 km
2020/07/10 13:50 LGSY 101350Z 32016KT CAVOK 26/16 Q1014 BLU
 
LGKZ - Kozani-Elev 628m
Απόσταση από σταθμό: ΔΝΔ 102km
Ενημερώθηκε: 10/07/2020 17:20

 Ανεμοι από ΝΑ
Ανεμος: ΝΑ 7 km/h
Θερμοκρασία: 29°C
Σημείο Δρόσου: 10°C
Υγρασία: 31%
Βαρόμετρο: 1018 hPa
2020/07/10 14:20 LGKZ 101420Z AUTO 13004KT 050V220 //// // ////// 29/10 Q1018 RE//
LGIO - Ioannina-Elev 476m
Απόσταση από σταθμό: ΔΝΔ 209km
Ενημερώθηκε: 10/07/2020 17:20

 Ανεμοι από μεταβλητός
Ανεμος: μεταβλητός 6 km/h
Θερμοκρασία: 31°C
Σημείο Δρόσου: 12°C
Υγρασία: 31%
Βαρόμετρο: 1015 hPa
2020/07/10 14:20 LGIO 101420Z AUTO VRB03KT //// // ////// 31/12 Q1015 RE//
 
LGZA - Zakinthos-Elev 3m
Απόσταση από σταθμό: ΝΝΔ 367km
Ενημερώθηκε: 10/07/2020 16:50
Αίθριος
Αίθριος
 Ανεμοι από μεταβλητός
Ανεμος: μεταβλητός 6 km/h
Θερμοκρασία: 31°C
Δείκτης Δυσφορίας: 32°C
Σημείο Δρόσου: 17°C
Υγρασία: 43%
Βαρόμετρο: 1012 hPa
Περίληψη: Αίθριος
Ορατότητα: πάνω από 10 km
2020/07/10 13:50 LGZA 101350Z VRB03KT CAVOK 31/17 Q1012
LGKR - Corfu Island-Elev 2m
Απόσταση από σταθμό: ΔΝΔ 282km
Ενημερώθηκε: 10/07/2020 17:20
Αίθριος
Αίθριος
 Ανεμοι από μεταβλητός
Ανεμος: μεταβλητός 0 km/h
Θερμοκρασία: 31°C
Δείκτης Δυσφορίας: 31°C
Σημείο Δρόσου: 16°C
Υγρασία: 40%
Βαρόμετρο: 1013 hPa
Περίληψη: Αίθριος
Ορατότητα: πάνω από 10 km
2020/07/10 14:20 LGKR 101420Z /////KT CAVOK 31/16 Q1013 NOSIG
 
LGSO - Syros Island-Elev 72m
Απόσταση από σταθμό: ΝΝΑ 397km
Ενημερώθηκε: 10/07/2020 16:50
Διάσπαρτα Νέφη
Διάσπαρτα Νέφη
 Ανεμοι από Β
Ανεμος: Β 41 km/h, Ριπή: 59 km/h
Θερμοκρασία: 25°C
Σημείο Δρόσου: 17°C
Υγρασία: 61%
Βαρόμετρο: 1011 hPa
Νέφωση: Διάσπαρτα Νέφη
Ορατότητα: 10 km
Λεπτομέρειες Νεφών: Διάσπαρτα Νέφη 549 m
2020/07/10 13:50 LGSO 101350Z 36022G32KT 9999 FEW018 25/17 Q1011
LGMK - Mikonos Island-Elev 123m
Απόσταση από σταθμό: ΝΝΑ 412km
Ενημερώθηκε: 10/07/2020 17:20
Αίθριος
Αίθριος
 Ανεμοι από μεταβλητός
Ανεμος: μεταβλητός 0 km/h
Θερμοκρασία: 27°C
Δείκτης Δυσφορίας: 28°C
Σημείο Δρόσου: 17°C
Υγρασία: 54%
Βαρόμετρο: 1011 hPa
Περίληψη: Αίθριος
Ορατότητα: πάνω από 10 km
2020/07/10 14:20 LGMK 101420Z /////KT CAVOK 27/17 Q1011
 
LGSR - Santorini Island-Elev 40m
Απόσταση από σταθμό: ΝΝΑ 520km
Ενημερώθηκε: 10/07/2020 17:20
Αίθριος
Αίθριος
 Ανεμοι από Β
Ανεμος: Β 33 km/h
Θερμοκρασία: 27°C
Δείκτης Δυσφορίας: 28°C
Σημείο Δρόσου: 18°C
Υγρασία: 58%
Βαρόμετρο: 1011 hPa
Περίληψη: Αίθριος
Ορατότητα: πάνω από 10 km
2020/07/10 14:20 LGSR 101420Z 35018KT CAVOK 27/18 Q1011
LGKL - Kalamata-Elev 8m
Απόσταση από σταθμό: Ν 405km
Ενημερώθηκε: 10/07/2020 17:20
Διάσπαρτα Νέφη
Διάσπαρτα Νέφη
 Ανεμοι από ΝΝΑ
Ανεμος: ΝΝΑ 19 km/h
Θερμοκρασία: 30°C
Δείκτης Δυσφορίας: 30°C
Σημείο Δρόσου: 16°C
Υγρασία: 43%
Βαρόμετρο: 1012 hPa
Νέφωση: Διάσπαρτα Νέφη
Ορατότητα: 10 km
Λεπτομέρειες Νεφών: Διάσπαρτα Νέφη 762 m
2020/07/10 14:20 LGKL 101420Z 16010KT 9999 FEW025 30/16 Q1012
 
LGIR - Iraklion/Crete-Elev 5m
Απόσταση από σταθμό: ΝΝΑ 622km
Ενημερώθηκε: 10/07/2020 17:50
Διάσπαρτα Νέφη
Διάσπαρτα Νέφη
 Ανεμοι από ΒΔ
Ανεμος: ΒΔ 22 km/h
Θερμοκρασία: 28°C
Δείκτης Δυσφορίας: 29°C
Σημείο Δρόσου: 18°C
Υγρασία: 55%
Βαρόμετρο: 1011 hPa
Νέφωση: Διάσπαρτα Νέφη
Ορατότητα: 10 km
Λεπτομέρειες Νεφών: Διάσπαρτα Νέφη 762 m
2020/07/10 14:50 LGIR 101450Z 32012KT 9999 FEW025 28/18 Q1011 NOSIG
LGRP - Rhodes-Elev 5m
Απόσταση από σταθμό: ΝΑ 649km
Ενημερώθηκε: 10/07/2020 17:50
Αίθριος
Αίθριος
 Ανεμοι από ΔΝΔ
Ανεμος: ΔΝΔ 31 km/h
Θερμοκρασία: 27°C
Δείκτης Δυσφορίας: 29°C
Σημείο Δρόσου: 22°C
Υγρασία: 74%
Βαρόμετρο: 1007 hPa
Περίληψη: Αίθριος
Ορατότητα: πάνω από 10 km
2020/07/10 14:50 LGRP 101450Z 25017KT CAVOK 27/22 Q1007 NOSIG
 
LWOH - Ohrid/FYROM-Elev 761m
Απόσταση από σταθμό: ΔΒΔ 188km
Ενημερώθηκε: 10/07/2020 18:00
Διάσπαρτα Νέφη
Διάσπαρτα Νέφη
 Ανεμοι από Ν
Ανεμος: Ν 6 km/h
Θερμοκρασία: 27°C
Δείκτης Δυσφορίας: 28°C
Σημείο Δρόσου: 16°C
Υγρασία: 51%
Βαρόμετρο: 1017 hPa
Νέφωση: Διάσπαρτα Νέφη
Ορατότητα: 10 km
Λεπτομέρειες Νεφών: Διάσπαρτα Νέφη 1524 m
2020/07/10 15:00 LWOH 101500Z 18003KT 9999 FEW050 27/16 Q1017
LBSF - Sofia/Bulgaria-Elev 595m
Απόσταση από σταθμό: Β 227km
Ενημερώθηκε: 10/07/2020 17:30
Διάσπαρτα Νέφη
Διάσπαρτα Νέφη
 Ανεμοι από ΑΝΑ
Ανεμος: ΑΝΑ 20 km/h
Θερμοκρασία: 29°C
Σημείο Δρόσου: 12°C
Υγρασία: 35%
Βαρόμετρο: 1018 hPa
Νέφωση: Διάσπαρτα Νέφη
Ορατότητα: 10 km
Λεπτομέρειες Νεφών: Διάσπαρτα Νέφη 1981 m
2020/07/10 14:30 LBSF 101430Z 11011KT 080V140 9999 FEW065 29/12 Q1018 NOSIG